createdAt,value
2023-04-28T00:00:05.087Z,54.92
2023-04-28T00:01:10.044Z,55.10
2023-04-28T00:02:11.591Z,55.16
2023-04-28T00:03:13.588Z,55.26
2023-04-28T00:04:15.843Z,55.11
2023-04-28T00:05:17.981Z,55.07
2023-04-28T00:06:19.553Z,55.07
2023-04-28T00:07:21.029Z,55.24
2023-04-28T00:08:26.360Z,55.12
2023-04-28T00:09:27.906Z,55.27
2023-04-28T00:10:30.743Z,55.15
2023-04-28T00:11:32.176Z,55.38
2023-04-28T00:12:33.741Z,55.35
2023-04-28T00:13:35.333Z,55.53
2023-04-28T00:14:36.992Z,55.36
2023-04-28T00:15:38.413Z,55.57
2023-04-28T00:16:40.147Z,55.08
2023-04-28T00:17:42.809Z,55.39
2023-04-28T00:18:44.384Z,55.42
2023-04-28T00:19:45.892Z,55.37
2023-04-28T00:20:48.121Z,55.56
2023-04-28T00:21:49.705Z,55.56
2023-04-28T00:22:51.160Z,55.62
2023-04-28T00:23:52.737Z,55.33
2023-04-28T00:24:54.234Z,55.43
2023-04-28T00:25:56.873Z,55.20
2023-04-28T00:26:58.537Z,55.31
2023-04-28T00:28:00.992Z,55.23
2023-04-28T00:29:02.589Z,55.61
2023-04-28T00:30:04.885Z,55.68
2023-04-28T00:31:15.814Z,55.58
2023-04-28T00:32:17.548Z,55.45
2023-04-28T00:33:19.114Z,55.75
2023-04-28T00:34:21.076Z,55.55
2023-04-28T00:35:22.853Z,55.83
2023-04-28T00:36:24.747Z,55.87
2023-04-28T00:37:26.202Z,55.87
2023-04-28T00:38:28.001Z,55.64
2023-04-28T00:39:29.805Z,56.13
2023-04-28T00:40:38.701Z,55.88
2023-04-28T00:41:40.181Z,55.57
2023-04-28T00:42:41.601Z,55.74
2023-04-28T00:43:44.919Z,55.74
2023-04-28T00:44:46.302Z,55.98
2023-04-28T00:45:51.398Z,55.97
2023-04-28T00:46:53.243Z,55.95
2023-04-28T00:47:55.826Z,56.15
2023-04-28T00:48:57.704Z,55.89
2023-04-28T00:50:01.032Z,56.04
2023-04-28T00:51:02.652Z,56.17
2023-04-28T00:52:06.282Z,56.17
2023-04-28T00:53:07.954Z,56.04
2023-04-28T00:54:14.273Z,56.14
2023-04-28T00:55:16.442Z,56.12
2023-04-28T00:56:18.960Z,56.35
2023-04-28T00:57:20.557Z,56.31
2023-04-28T00:58:23.454Z,56.19
2023-04-28T00:59:24.895Z,56.16
2023-04-28T01:00:26.380Z,56.24
2023-04-28T01:01:28.057Z,56.30
2023-04-28T01:02:30.583Z,56.21
2023-04-28T01:03:37.581Z,56.51
2023-04-28T01:04:39.586Z,56.53
2023-04-28T01:05:41.390Z,56.43
2023-04-28T01:06:43.848Z,56.15
2023-04-28T01:07:45.393Z,56.17
2023-04-28T01:08:50.360Z,56.41
2023-04-28T01:09:52.332Z,56.35
2023-04-28T01:10:57.282Z,56.45
2023-04-28T01:12:18.385Z,56.44
2023-04-28T01:13:23.412Z,56.87
2023-04-28T01:14:25.185Z,56.35
2023-04-28T01:15:27.413Z,56.62
2023-04-28T01:16:29.566Z,56.82
2023-04-28T01:17:31.712Z,56.84
2023-04-28T01:18:34.257Z,56.74
2023-04-28T01:19:36.154Z,56.66
2023-04-28T01:20:37.974Z,56.99
2023-04-28T01:21:39.656Z,56.68
2023-04-28T01:23:14.413Z,56.87
2023-04-28T01:24:17.100Z,56.82
2023-04-28T01:25:18.856Z,56.78
2023-04-28T01:26:21.072Z,56.88
2023-04-28T01:27:22.904Z,56.92
2023-04-28T01:28:24.536Z,57.00
2023-04-28T01:29:27.097Z,56.99
2023-04-28T01:32:37.807Z,56.94
2023-04-28T01:33:39.334Z,57.18
2023-04-28T01:34:41.021Z,57.52
2023-04-28T01:35:42.492Z,57.13
2023-04-28T01:36:45.477Z,57.36
2023-04-28T01:37:47.010Z,57.45
2023-04-28T01:38:51.273Z,57.45
2023-04-28T01:39:52.927Z,57.39
2023-04-28T01:40:54.959Z,57.28
2023-04-28T01:41:56.370Z,57.41
2023-04-28T01:42:58.466Z,57.12
2023-04-28T01:44:00.011Z,57.40
2023-04-28T01:45:02.730Z,57.63
2023-04-28T01:46:04.319Z,57.72
2023-04-28T01:47:06.415Z,57.61
2023-04-28T01:48:09.981Z,57.65
2023-04-28T01:49:11.500Z,57.68
2023-04-28T01:50:12.901Z,57.72
2023-04-28T01:51:14.348Z,57.79
2023-04-28T01:52:16.191Z,57.70
2023-04-28T01:53:20.230Z,57.83
2023-04-28T01:54:22.254Z,57.90
2023-04-28T01:55:23.849Z,58.11
2023-04-28T01:56:26.061Z,58.09
2023-04-28T01:57:29.261Z,58.32
2023-04-28T01:58:31.186Z,58.07
2023-04-28T01:59:32.898Z,58.06
2023-04-28T02:00:35.815Z,58.04
2023-04-28T02:01:38.538Z,58.27
2023-04-28T02:02:40.798Z,58.71
2023-04-28T02:03:42.588Z,58.61
2023-04-28T02:04:44.386Z,58.39
2023-04-28T02:05:45.869Z,58.44
2023-04-28T02:06:47.302Z,58.67
2023-04-28T02:07:48.881Z,58.35
2023-04-28T02:08:50.463Z,58.69
2023-04-28T02:09:51.877Z,58.91
2023-04-28T02:10:53.455Z,58.96
2023-04-28T02:11:55.972Z,58.95
2023-04-28T02:12:57.649Z,59.00
2023-04-28T02:13:59.275Z,58.80
2023-04-28T02:15:00.829Z,58.96
2023-04-28T02:16:02.490Z,58.98
2023-04-28T02:17:04.825Z,58.97
2023-04-28T02:18:08.844Z,58.88
2023-04-28T02:19:14.948Z,59.25
2023-04-28T02:20:16.472Z,59.42
2023-04-28T02:21:17.953Z,59.16
2023-04-28T02:22:19.876Z,59.32
2023-04-28T02:23:21.300Z,59.35
2023-04-28T02:24:22.743Z,59.62
2023-04-28T02:25:25.161Z,59.09
2023-04-28T02:26:27.108Z,59.28
2023-04-28T02:27:28.645Z,59.33
2023-04-28T02:28:30.507Z,59.36
2023-04-28T02:29:32.503Z,59.74
2023-04-28T02:30:34.063Z,59.07
2023-04-28T02:31:35.536Z,59.36
2023-04-28T02:32:36.970Z,59.73
2023-04-28T02:33:38.479Z,59.38
2023-04-28T02:34:40.134Z,59.78
2023-04-28T02:35:42.587Z,59.83
2023-04-28T02:36:44.077Z,59.77
2023-04-28T02:37:45.941Z,59.79
2023-04-28T02:38:47.526Z,59.71
2023-04-28T02:39:49.073Z,60.01
2023-04-28T02:40:59.620Z,59.91
2023-04-28T02:42:04.637Z,60.13
2023-04-28T02:43:06.133Z,60.03
2023-04-28T02:44:07.727Z,60.16
2023-04-28T02:45:09.553Z,60.03
2023-04-28T02:46:11.157Z,59.91
2023-04-28T02:47:12.605Z,60.31
2023-04-28T02:48:14.390Z,60.07
2023-04-28T02:49:16.283Z,60.31
2023-04-28T02:50:18.098Z,60.68
2023-04-28T02:51:19.589Z,60.08
2023-04-28T02:52:21.088Z,60.34
2023-04-28T02:53:22.722Z,60.54
2023-04-28T02:54:27.366Z,60.49
2023-04-28T02:55:29.651Z,60.48
2023-04-28T02:56:31.237Z,60.57
2023-04-28T02:57:36.732Z,60.72
2023-04-28T02:58:38.298Z,60.96
2023-04-28T02:59:39.770Z,60.48
2023-04-28T03:00:41.532Z,61.18
2023-04-28T03:01:43.018Z,60.74
2023-04-28T03:02:44.647Z,60.80
2023-04-28T03:03:46.429Z,60.77
2023-04-28T03:04:48.227Z,60.84
2023-04-28T03:05:49.982Z,61.14
2023-04-28T03:06:51.447Z,60.66
2023-04-28T03:07:53.330Z,60.86
2023-04-28T03:08:54.834Z,60.84
2023-04-28T03:09:56.302Z,60.91
2023-04-28T03:10:57.973Z,61.00
2023-04-28T03:11:59.544Z,60.66
2023-04-28T03:13:01.059Z,60.82
2023-04-28T03:14:02.632Z,60.98
2023-04-28T03:15:05.246Z,61.06
2023-04-28T03:16:07.271Z,60.85
2023-04-28T03:17:08.876Z,60.67
2023-04-28T03:18:10.530Z,61.11
2023-04-28T03:19:12.134Z,60.93
2023-04-28T03:20:13.642Z,61.09
2023-04-28T03:21:15.252Z,61.27
2023-04-28T03:22:16.639Z,60.96
2023-04-28T03:23:18.072Z,60.93
2023-04-28T03:24:20.444Z,60.90
2023-04-28T03:25:24.278Z,61.24
2023-04-28T03:26:26.066Z,60.95
2023-04-28T03:27:28.101Z,61.21
2023-04-28T03:28:30.064Z,61.09
2023-04-28T03:29:33.544Z,61.17
2023-04-28T03:30:36.026Z,61.05
2023-04-28T03:31:37.603Z,61.16
2023-04-28T03:32:39.161Z,61.29
2023-04-28T03:33:41.739Z,60.99
2023-04-28T03:34:43.924Z,61.16
2023-04-28T03:35:45.805Z,61.05
2023-04-28T03:36:47.445Z,61.28
2023-04-28T03:37:56.382Z,61.29
2023-04-28T03:38:58.799Z,61.03
2023-04-28T03:40:00.318Z,61.55
2023-04-28T03:41:02.410Z,61.44
2023-04-28T03:42:32.684Z,61.16
2023-04-28T03:43:44.803Z,61.18
2023-04-28T03:44:56.436Z,61.36
2023-04-28T03:45:57.926Z,61.11
2023-04-28T03:47:00.908Z,61.54
2023-04-28T03:48:02.497Z,61.64
2023-04-28T03:49:04.100Z,61.54
2023-04-28T03:50:06.572Z,61.73
2023-04-28T03:51:08.030Z,61.98
2023-04-28T03:52:09.604Z,61.60
2023-04-28T03:53:11.419Z,61.48
2023-04-28T03:54:12.876Z,61.62
2023-04-28T03:55:14.387Z,61.62
2023-04-28T03:56:16.112Z,61.80
2023-04-28T03:57:17.581Z,61.58
2023-04-28T03:58:19.079Z,61.52
2023-04-28T03:59:20.727Z,61.95
2023-04-28T04:00:23.963Z,61.85
2023-04-28T04:01:26.325Z,62.05
2023-04-28T04:02:27.925Z,61.78
2023-04-28T04:03:29.679Z,61.92
2023-04-28T04:04:31.608Z,62.04
2023-04-28T04:05:33.443Z,61.96
2023-04-28T04:06:37.896Z,61.87
2023-04-28T04:07:39.778Z,61.88
2023-04-28T04:08:42.029Z,61.72
2023-04-28T04:09:43.453Z,62.23
2023-04-28T04:10:46.128Z,61.92
2023-04-28T04:11:48.337Z,62.06
2023-04-28T04:12:49.870Z,62.22
2023-04-28T04:13:51.634Z,62.05
2023-04-28T04:14:53.204Z,61.90
2023-04-28T04:15:55.018Z,62.25
2023-04-28T04:16:57.326Z,61.83
2023-04-28T04:17:59.408Z,62.09
2023-04-28T04:19:02.679Z,62.20
2023-04-28T04:20:10.826Z,62.02
2023-04-28T04:21:12.362Z,61.84
2023-04-28T04:22:14.599Z,62.22
2023-04-28T04:23:16.306Z,61.96
2023-04-28T04:24:18.149Z,62.17
2023-04-28T04:25:22.054Z,62.24
2023-04-28T04:26:25.553Z,62.07
2023-04-28T04:27:27.029Z,61.94
2023-04-28T04:28:28.935Z,62.21
2023-04-28T04:29:31.082Z,61.81
2023-04-28T04:30:34.223Z,61.76
2023-04-28T04:31:35.992Z,61.55
2023-04-28T04:32:37.574Z,61.61
2023-04-28T04:33:39.278Z,61.85
2023-04-28T04:34:41.271Z,61.52
2023-04-28T04:35:43.246Z,61.60
2023-04-28T04:36:44.801Z,61.75
2023-04-28T04:37:46.978Z,61.61
2023-04-28T04:38:48.543Z,61.40
2023-04-28T04:39:51.870Z,61.47
2023-04-28T04:40:53.403Z,61.46
2023-04-28T04:41:55.128Z,61.51
2023-04-28T04:43:15.541Z,61.24
2023-04-28T04:44:21.239Z,61.50
2023-04-28T04:45:22.831Z,61.25
2023-04-28T04:46:25.002Z,61.07
2023-04-28T04:47:27.600Z,61.02
2023-04-28T04:48:29.341Z,61.40
2023-04-28T04:49:33.129Z,61.26
2023-04-28T04:50:34.766Z,61.25
2023-04-28T04:51:36.938Z,61.20
2023-04-28T04:52:38.795Z,61.05
2023-04-28T04:53:41.088Z,60.87
2023-04-28T04:54:42.766Z,61.09
2023-04-28T04:55:45.218Z,61.01
2023-04-28T04:56:46.863Z,60.93
2023-04-28T04:57:50.131Z,61.04
2023-04-28T04:59:06.577Z,60.89
2023-04-28T05:00:16.333Z,60.92
2023-04-28T05:01:18.110Z,60.71
2023-04-28T05:02:20.253Z,60.81
2023-04-28T05:03:22.485Z,60.92
2023-04-28T05:04:24.366Z,60.56
2023-04-28T05:05:26.602Z,60.63
2023-04-28T05:06:45.428Z,60.51
2023-04-28T05:07:47.170Z,60.62
2023-04-28T05:08:49.114Z,60.49
2023-04-28T05:09:50.599Z,60.49
2023-04-28T05:10:52.174Z,60.18
2023-04-28T05:11:54.615Z,60.46
2023-04-28T05:12:56.252Z,60.30
2023-04-28T05:13:57.830Z,60.14
2023-04-28T05:15:00.007Z,60.02
2023-04-28T05:16:01.511Z,60.14
2023-04-28T05:17:11.775Z,60.08
2023-04-28T05:18:15.409Z,60.12
2023-04-28T05:19:16.951Z,59.94
2023-04-28T05:20:18.439Z,59.85
2023-04-28T05:21:19.852Z,59.72
2023-04-28T05:22:23.219Z,59.72
2023-04-28T05:23:24.916Z,59.60
2023-04-28T05:24:27.153Z,59.46
2023-04-28T05:25:28.827Z,59.52
2023-04-28T05:26:30.719Z,59.47
2023-04-28T05:27:39.122Z,59.47
2023-04-28T05:28:40.898Z,59.48
2023-04-28T05:29:43.207Z,59.35
2023-04-28T05:30:45.138Z,59.37
2023-04-28T05:31:47.417Z,59.41
2023-04-28T05:32:49.314Z,59.12
2023-04-28T05:33:51.242Z,58.96
2023-04-28T05:34:52.724Z,59.09
2023-04-28T05:35:54.268Z,58.92
2023-04-28T05:36:55.718Z,58.79
2023-04-28T05:37:59.295Z,58.49
2023-04-28T05:39:01.201Z,58.37
2023-04-28T05:40:03.325Z,58.33
2023-04-28T05:41:05.468Z,58.09
2023-04-28T05:42:07.025Z,58.31
2023-04-28T05:43:09.686Z,58.03
2023-04-28T05:44:11.556Z,57.95
2023-04-28T05:45:14.622Z,58.08
2023-04-28T05:46:29.054Z,58.15
2023-04-28T05:47:33.330Z,57.93
2023-04-28T05:48:35.784Z,58.29
2023-04-28T05:49:37.932Z,57.64
2023-04-28T05:50:39.926Z,57.45
2023-04-28T05:51:41.617Z,57.42
2023-04-28T05:52:43.256Z,56.92
2023-04-28T05:53:48.135Z,57.15
2023-04-28T05:54:50.230Z,57.23
2023-04-28T05:55:51.977Z,57.50
2023-04-28T05:56:54.377Z,57.30
2023-04-28T05:57:55.933Z,56.90
2023-04-28T05:58:58.422Z,57.04
2023-04-28T06:00:00.739Z,56.86
2023-04-28T06:01:02.357Z,56.97
2023-04-28T06:02:03.917Z,56.90
2023-04-28T06:03:06.346Z,56.78
2023-04-28T06:04:08.526Z,56.82
2023-04-28T06:05:11.078Z,56.45
2023-04-28T06:06:13.610Z,56.61
2023-04-28T06:07:15.231Z,56.02
2023-04-28T06:08:18.809Z,56.34
2023-04-28T06:09:20.391Z,56.79
2023-04-28T06:10:22.953Z,56.07
2023-04-28T06:11:24.537Z,56.20
2023-04-28T06:12:26.249Z,56.01
2023-04-28T06:13:27.940Z,55.93
2023-04-28T06:14:31.124Z,56.06
2023-04-28T06:15:33.082Z,55.34
2023-04-28T06:16:34.813Z,55.46
2023-04-28T06:17:38.302Z,55.29
2023-04-28T06:18:39.945Z,55.30
2023-04-28T06:19:41.514Z,54.87
2023-04-28T06:20:43.725Z,55.05
2023-04-28T06:21:46.493Z,55.35
2023-04-28T06:22:49.046Z,55.16
2023-04-28T06:23:50.945Z,54.90
2023-04-28T06:24:53.013Z,54.88
2023-04-28T06:26:01.329Z,55.20
2023-04-28T06:27:03.017Z,55.03
2023-04-28T06:28:05.696Z,55.05
2023-04-28T06:29:07.278Z,54.50
2023-04-28T06:30:17.750Z,54.38
2023-04-28T06:31:19.176Z,54.02
2023-04-28T06:32:20.799Z,53.27
2023-04-28T06:33:22.351Z,53.35
2023-04-28T06:34:26.804Z,53.63
2023-04-28T06:35:28.630Z,53.82
2023-04-28T06:36:30.170Z,53.99
2023-04-28T06:37:31.688Z,53.92
2023-04-28T06:38:33.208Z,53.51
2023-04-28T06:39:35.478Z,53.47
2023-04-28T06:40:37.045Z,52.74
2023-04-28T06:41:40.549Z,53.14
2023-04-28T06:42:42.954Z,52.59
2023-04-28T06:43:53.186Z,52.59
2023-04-28T06:44:59.502Z,52.86
2023-04-28T06:46:03.009Z,52.59
2023-04-28T06:47:04.764Z,52.78
2023-04-28T06:48:07.515Z,52.83
2023-04-28T06:49:12.525Z,52.67
2023-04-28T06:50:14.222Z,52.74
2023-04-28T06:51:15.769Z,52.49
2023-04-28T06:52:17.511Z,52.13
2023-04-28T06:53:19.015Z,51.13
2023-04-28T06:54:20.816Z,51.64
2023-04-28T06:55:23.073Z,51.47
2023-04-28T06:56:25.146Z,51.55
2023-04-28T06:57:26.528Z,51.58
2023-04-28T06:58:29.706Z,51.27
2023-04-28T06:59:31.619Z,51.36
2023-04-28T07:00:33.707Z,51.22
2023-04-28T07:01:35.267Z,50.72
2023-04-28T07:02:37.099Z,50.60
2023-04-28T07:03:38.966Z,50.17
2023-04-28T07:04:40.712Z,50.06
2023-04-28T07:05:42.378Z,49.87
2023-04-28T07:06:43.933Z,49.52
2023-04-28T07:07:45.627Z,49.71
2023-04-28T07:08:47.148Z,49.86
2023-04-28T07:09:48.634Z,49.94
2023-04-28T07:10:49.991Z,50.05
2023-04-28T07:11:51.446Z,50.00
2023-04-28T07:12:52.911Z,49.64
2023-04-28T07:13:54.415Z,49.64
2023-04-28T07:14:56.041Z,49.04
2023-04-28T07:15:58.241Z,48.10
2023-04-28T07:16:59.941Z,47.00
2023-04-28T07:18:01.410Z,47.57
2023-04-28T07:19:03.090Z,47.68
2023-04-28T07:20:06.204Z,47.26
2023-04-28T07:21:07.935Z,47.73
2023-04-28T07:22:10.901Z,47.32
2023-04-28T07:23:12.275Z,47.17
2023-04-28T07:24:13.783Z,47.31
2023-04-28T07:25:15.334Z,47.44
2023-04-28T07:26:16.814Z,47.57
2023-04-28T07:27:18.246Z,47.30
2023-04-28T07:28:19.761Z,47.65
2023-04-28T07:29:21.165Z,47.36
2023-04-28T07:30:27.920Z,47.12
2023-04-28T07:31:29.879Z,47.53
2023-04-28T07:32:31.410Z,47.39
2023-04-28T07:33:32.956Z,46.84
2023-04-28T07:34:37.909Z,47.01
2023-04-28T07:35:39.828Z,46.99
2023-04-28T07:36:41.612Z,46.75
2023-04-28T07:37:43.234Z,46.65
2023-04-28T07:38:44.778Z,46.62
2023-04-28T07:39:46.682Z,46.51
2023-04-28T07:40:48.438Z,46.82
2023-04-28T07:41:50.101Z,46.71
2023-04-28T07:42:51.685Z,46.94
2023-04-28T07:43:53.183Z,46.41
2023-04-28T07:44:55.022Z,46.07
2023-04-28T07:45:56.645Z,45.34
2023-04-28T07:47:01.281Z,45.63
2023-04-28T07:48:03.240Z,45.64
2023-04-28T07:49:04.837Z,45.46
2023-04-28T07:50:07.418Z,45.43
2023-04-28T07:51:08.870Z,45.50
2023-04-28T07:52:10.797Z,44.73
2023-04-28T07:53:12.468Z,44.96
2023-04-28T07:54:14.182Z,45.08
2023-04-28T07:55:15.752Z,45.36
2023-04-28T07:56:17.419Z,45.41
2023-04-28T07:57:19.114Z,45.02
2023-04-28T07:58:20.601Z,43.99
2023-04-28T07:59:23.460Z,43.37
2023-04-28T08:00:25.665Z,44.27
2023-04-28T08:01:27.236Z,43.45
2023-04-28T08:02:29.065Z,43.69
2023-04-28T08:03:31.132Z,43.84
2023-04-28T08:04:34.170Z,43.88
2023-04-28T08:05:37.520Z,43.83
2023-04-28T08:06:40.251Z,43.77
2023-04-28T08:07:42.172Z,43.84
2023-04-28T08:08:43.733Z,42.84
2023-04-28T08:09:47.524Z,43.05
2023-04-28T08:10:50.064Z,43.18
2023-04-28T08:11:51.577Z,43.44
2023-04-28T08:12:53.048Z,43.44
2023-04-28T08:13:56.315Z,43.53
2023-04-28T08:14:57.746Z,43.27
2023-04-28T08:16:02.036Z,43.14
2023-04-28T08:17:03.619Z,43.14
2023-04-28T08:18:05.176Z,43.00
2023-04-28T08:19:07.048Z,42.56
2023-04-28T08:20:08.936Z,42.48
2023-04-28T08:21:10.810Z,42.61
2023-04-28T08:22:13.001Z,42.30
2023-04-28T08:23:14.530Z,42.26
2023-04-28T08:24:16.407Z,42.23
2023-04-28T08:25:18.041Z,42.10
2023-04-28T08:26:19.854Z,42.50
2023-04-28T08:27:22.916Z,42.51
2023-04-28T08:28:24.380Z,42.81
2023-04-28T08:29:26.280Z,42.39
2023-04-28T08:30:27.777Z,42.00
2023-04-28T08:31:29.374Z,41.16
2023-04-28T08:32:31.008Z,41.35
2023-04-28T08:33:32.504Z,41.03
2023-04-28T08:34:34.048Z,41.42
2023-04-28T08:35:35.533Z,41.56
2023-04-28T08:36:37.107Z,40.77
2023-04-28T08:37:38.611Z,40.75
2023-04-28T08:38:41.144Z,40.34
2023-04-28T08:39:43.182Z,40.17
2023-04-28T08:40:44.859Z,39.53
2023-04-28T08:41:46.355Z,39.26
2023-04-28T08:42:47.945Z,39.46
2023-04-28T08:43:49.691Z,39.70
2023-04-28T08:44:52.346Z,39.83
2023-04-28T08:45:53.962Z,39.40
2023-04-28T08:46:58.971Z,39.21
2023-04-28T08:48:03.249Z,39.46
2023-04-28T08:49:06.870Z,39.90
2023-04-28T08:50:08.691Z,40.04
2023-04-28T08:51:16.109Z,39.80
2023-04-28T08:52:18.854Z,39.20
2023-04-28T08:53:25.851Z,38.30
2023-04-28T08:54:31.339Z,39.01
2023-04-28T08:55:34.193Z,39.37
2023-04-28T08:56:35.828Z,39.77
2023-04-28T08:57:48.646Z,39.96
2023-04-28T08:58:52.454Z,39.63
2023-04-28T08:59:54.115Z,39.34
2023-04-28T09:00:55.893Z,39.08
2023-04-28T09:01:57.945Z,38.29
2023-04-28T09:02:59.678Z,38.29
2023-04-28T09:04:04.784Z,37.83
2023-04-28T09:05:10.595Z,38.06
2023-04-28T09:06:12.286Z,38.14
2023-04-28T09:07:13.860Z,38.13
2023-04-28T09:08:15.437Z,37.87
2023-04-28T09:09:32.679Z,38.03
2023-04-28T09:10:36.122Z,38.32
2023-04-28T09:11:57.623Z,38.21
2023-04-28T09:12:59.264Z,37.93
2023-04-28T09:14:12.069Z,38.10
2023-04-28T09:15:36.599Z,37.95
2023-04-28T09:16:41.285Z,37.95
2023-04-28T09:17:52.221Z,37.87
2023-04-28T09:18:57.473Z,38.33
2023-04-28T09:19:59.332Z,38.27
2023-04-28T09:21:08.400Z,38.16
2023-04-28T09:22:24.870Z,37.92
2023-04-28T09:23:28.085Z,38.18
2023-04-28T09:24:41.158Z,38.31
2023-04-28T09:25:56.843Z,38.34
2023-04-28T09:27:03.559Z,38.43
2023-04-28T09:28:21.462Z,38.58
2023-04-28T09:29:23.069Z,38.32
2023-04-28T09:30:40.385Z,38.38
2023-04-28T09:31:42.990Z,38.66
2023-04-28T09:32:44.576Z,38.45
2023-04-28T09:33:59.464Z,38.67
2023-04-28T09:35:04.031Z,38.67
2023-04-28T09:36:05.833Z,38.89
2023-04-28T09:37:20.822Z,38.89
2023-04-28T09:38:23.116Z,38.82
2023-04-28T09:39:31.157Z,39.06
2023-04-28T09:40:33.897Z,38.88
2023-04-28T09:41:40.089Z,38.78
2023-04-28T09:42:43.255Z,38.83
2023-04-28T09:43:44.737Z,38.61
2023-04-28T09:44:53.114Z,38.73
2023-04-28T09:45:55.966Z,38.89
2023-04-28T09:46:57.549Z,38.97
2023-04-28T09:48:10.212Z,39.13
2023-04-28T09:49:12.718Z,39.02
2023-04-28T09:50:16.504Z,39.10
2023-04-28T09:51:20.919Z,38.90
2023-04-28T09:52:25.237Z,38.82
2023-04-28T09:53:28.513Z,38.65
2023-04-28T09:54:32.954Z,38.35
2023-04-28T09:55:36.608Z,38.32
2023-04-28T09:56:41.351Z,38.57
2023-04-28T09:57:44.154Z,38.74
2023-04-28T09:58:47.556Z,38.07
2023-04-28T09:59:53.765Z,38.13
2023-04-28T10:00:57.593Z,37.77
2023-04-28T10:02:00.866Z,37.39
2023-04-28T10:03:04.471Z,37.55
2023-04-28T10:04:07.548Z,37.58
2023-04-28T10:05:10.261Z,37.80
2023-04-28T10:06:12.848Z,37.64
2023-04-28T10:07:16.104Z,37.88
2023-04-28T10:08:19.191Z,37.83
2023-04-28T10:09:25.921Z,37.51
2023-04-28T10:10:28.494Z,37.39
2023-04-28T10:11:30.783Z,36.96
2023-04-28T10:12:32.825Z,37.47
2023-04-28T10:13:35.925Z,37.42
2023-04-28T10:14:37.650Z,37.48
2023-04-28T10:15:40.322Z,37.17
2023-04-28T10:16:42.394Z,37.39
2023-04-28T10:17:45.797Z,37.40
2023-04-28T10:18:47.435Z,37.71
2023-04-28T10:19:51.413Z,37.97
2023-04-28T10:20:57.776Z,37.67
2023-04-28T10:22:36.393Z,37.81
2023-04-28T10:23:56.506Z,37.71
2023-04-28T10:25:23.288Z,38.09
2023-04-28T10:26:55.857Z,37.83
2023-04-28T10:27:59.551Z,37.83
2023-04-28T10:29:01.462Z,37.81
2023-04-28T10:30:26.497Z,37.72
2023-04-28T10:31:29.971Z,37.55
2023-04-28T10:32:32.746Z,37.25
2023-04-28T10:33:34.637Z,37.21
2023-04-28T10:34:36.447Z,36.88
2023-04-28T10:35:43.946Z,36.85
2023-04-28T10:36:50.306Z,36.95
2023-04-28T10:38:11.732Z,37.05
2023-04-28T10:39:13.559Z,36.93
2023-04-28T10:40:34.722Z,37.00
2023-04-28T10:41:36.202Z,36.87
2023-04-28T10:42:55.464Z,36.85
2023-04-28T10:43:56.929Z,35.71
2023-04-28T10:44:58.737Z,36.06
2023-04-28T10:46:01.584Z,36.27
2023-04-28T10:47:10.003Z,35.88
2023-04-28T10:48:11.904Z,36.11
2023-04-28T10:49:13.323Z,36.29
2023-04-28T10:50:14.938Z,36.39
2023-04-28T10:51:16.562Z,36.62
2023-04-28T10:52:34.057Z,36.76
2023-04-28T10:53:44.789Z,36.63
2023-04-28T10:55:25.060Z,36.39
2023-04-28T10:56:27.171Z,36.11
2023-04-28T10:57:28.737Z,36.06
2023-04-28T10:58:31.817Z,35.99
2023-04-28T10:59:33.299Z,34.38
2023-04-28T11:00:34.892Z,34.90
2023-04-28T11:01:36.646Z,35.16
2023-04-28T11:02:43.357Z,35.49
2023-04-28T11:03:46.510Z,35.46
2023-04-28T11:05:26.799Z,35.83
2023-04-28T11:06:36.498Z,35.95
2023-04-28T11:07:37.968Z,35.53
2023-04-28T11:08:39.740Z,35.72
2023-04-28T11:09:41.304Z,35.76
2023-04-28T11:11:12.133Z,35.90
2023-04-28T11:12:13.719Z,35.26
2023-04-28T11:13:31.105Z,35.28
2023-04-28T11:14:36.543Z,34.68
2023-04-28T11:15:38.735Z,35.08
2023-04-28T11:16:51.534Z,34.82
2023-04-28T11:17:56.794Z,34.34
2023-04-28T11:19:04.206Z,34.15
2023-04-28T11:20:08.440Z,34.17
2023-04-28T11:21:10.844Z,33.97
2023-04-28T11:22:21.136Z,34.22
2023-04-28T11:23:27.670Z,34.06
2023-04-28T11:24:30.555Z,34.05
2023-04-28T11:25:55.313Z,34.21
2023-04-28T11:26:57.796Z,34.21
2023-04-28T11:28:07.930Z,33.94
2023-04-28T11:29:10.831Z,34.04
2023-04-28T11:30:22.406Z,34.45
2023-04-28T11:31:25.540Z,34.20
2023-04-28T11:32:28.038Z,34.09
2023-04-28T11:33:30.309Z,34.31
2023-04-28T11:34:32.586Z,34.10
2023-04-28T11:35:41.826Z,33.93
2023-04-28T11:36:43.813Z,33.90
2023-04-28T11:37:46.294Z,33.12
2023-04-28T11:38:48.611Z,33.28
2023-04-28T11:39:50.574Z,33.08
2023-04-28T11:40:58.662Z,33.83
2023-04-28T11:42:09.859Z,33.83
2023-04-28T11:43:11.289Z,34.42
2023-04-28T11:44:14.426Z,33.70
2023-04-28T11:45:16.049Z,33.71
2023-04-28T11:46:23.359Z,33.22
2023-04-28T11:47:29.620Z,32.96
2023-04-28T11:48:31.730Z,33.18
2023-04-28T11:49:46.229Z,33.14
2023-04-28T11:50:47.862Z,33.03
2023-04-28T11:51:50.842Z,33.20
2023-04-28T11:52:53.766Z,33.32
2023-04-28T11:53:55.479Z,33.34
2023-04-28T11:54:59.412Z,33.52
2023-04-28T11:56:09.649Z,33.71
2023-04-28T11:57:18.900Z,33.70
2023-04-28T11:58:22.982Z,33.81
2023-04-28T11:59:26.475Z,33.75
2023-04-28T12:00:28.927Z,33.52
2023-04-28T12:01:31.833Z,33.85
2023-04-28T12:02:33.532Z,33.10
2023-04-28T12:03:45.586Z,32.59
2023-04-28T12:04:50.013Z,32.72
2023-04-28T12:05:51.988Z,32.80
2023-04-28T12:07:10.198Z,32.65
2023-04-28T12:08:11.851Z,32.48
2023-04-28T12:09:18.963Z,32.68
2023-04-28T12:10:21.306Z,32.34
2023-04-28T12:11:23.548Z,32.52
2023-04-28T12:12:39.998Z,32.85
2023-04-28T12:14:03.939Z,33.25
2023-04-28T12:15:07.382Z,32.81
2023-04-28T12:16:09.064Z,32.32
2023-04-28T12:17:26.037Z,32.09
2023-04-28T12:18:27.455Z,32.24
2023-04-28T12:19:29.031Z,32.17
2023-04-28T12:20:35.945Z,31.18
2023-04-28T12:21:39.224Z,31.00
2023-04-28T12:22:48.465Z,30.72
2023-04-28T12:23:50.092Z,30.62
2023-04-28T12:25:04.324Z,30.45
2023-04-28T12:26:05.994Z,30.90
2023-04-28T12:27:24.420Z,30.97
2023-04-28T12:28:39.636Z,30.38
2023-04-28T12:29:42.864Z,30.37
2023-04-28T12:30:44.827Z,30.83
2023-04-28T12:31:51.438Z,30.53
2023-04-28T12:32:53.813Z,30.72
2023-04-28T12:33:55.241Z,30.50
2023-04-28T12:34:56.934Z,30.60
2023-04-28T12:35:59.194Z,31.08
2023-04-28T12:37:01.762Z,30.70
2023-04-28T12:38:03.347Z,30.82
2023-04-28T12:39:04.864Z,30.78
2023-04-28T12:40:07.095Z,30.83
2023-04-28T12:41:08.572Z,30.88
2023-04-28T12:42:10.071Z,31.26
2023-04-28T12:43:11.470Z,31.59
2023-04-28T12:44:12.951Z,31.44
2023-04-28T12:45:15.757Z,31.15
2023-04-28T12:46:17.448Z,30.87
2023-04-28T12:47:19.049Z,30.57
2023-04-28T12:48:21.672Z,30.54
2023-04-28T12:49:23.137Z,30.65
2023-04-28T12:50:26.360Z,30.75
2023-04-28T12:51:29.220Z,30.94
2023-04-28T12:52:33.122Z,30.65
2023-04-28T12:53:35.020Z,30.45
2023-04-28T12:54:36.529Z,29.62
2023-04-28T12:55:40.931Z,29.94
2023-04-28T12:56:42.441Z,30.27
2023-04-28T12:57:43.882Z,30.30
2023-04-28T12:58:45.911Z,30.41
2023-04-28T12:59:47.821Z,30.30
2023-04-28T13:00:49.265Z,30.40
2023-04-28T13:01:50.846Z,30.49
2023-04-28T13:02:52.618Z,30.75
2023-04-28T13:03:54.663Z,30.59
2023-04-28T13:04:56.457Z,30.08
2023-04-28T13:05:58.096Z,30.26
2023-04-28T13:07:00.342Z,30.04
2023-04-28T13:08:01.940Z,30.04
2023-04-28T13:09:03.452Z,30.02
2023-04-28T13:10:06.016Z,30.32
2023-04-28T13:11:19.659Z,30.13
2023-04-28T13:12:24.088Z,29.97
2023-04-28T13:13:25.529Z,30.09
2023-04-28T13:14:27.916Z,30.19
2023-04-28T13:15:30.561Z,30.70
2023-04-28T13:16:33.115Z,30.88
2023-04-28T13:17:35.053Z,31.23
2023-04-28T13:18:36.561Z,31.81
2023-04-28T13:19:38.969Z,32.01
2023-04-28T13:20:40.499Z,32.26
2023-04-28T13:21:42.291Z,31.96
2023-04-28T13:22:43.748Z,31.54
2023-04-28T13:23:45.366Z,30.13
2023-04-28T13:24:47.639Z,30.88
2023-04-28T13:25:50.059Z,31.26
2023-04-28T13:26:52.012Z,31.23
2023-04-28T13:27:53.459Z,31.08
2023-04-28T13:28:55.494Z,30.87
2023-04-28T13:29:59.993Z,30.67
2023-04-28T13:31:01.526Z,31.04
2023-04-28T13:32:04.710Z,30.89
2023-04-28T13:33:06.655Z,30.51
2023-04-28T13:34:08.922Z,31.00
2023-04-28T13:35:10.563Z,30.58
2023-04-28T13:36:12.197Z,29.59
2023-04-28T13:37:14.368Z,29.08
2023-04-28T13:38:16.758Z,29.06
2023-04-28T13:39:19.492Z,29.43
2023-04-28T13:40:21.285Z,29.77
2023-04-28T13:41:22.741Z,30.15